Leo Star I — ELXC6 — position and weather

sailwx.info

Track history (hours):
 
Tides and Currents Weather Stations Pressure Air Temp Water Temp Dewpoint Dewpoint Depression Visibility Wind Speed Wind Dir Waves Ship Positions

Leo Star I

Last reported at 2014-Jun-27 21:24 UTC. Time now 2014-Jul-29 02:36 UTC.
Position N 34°18' W 007°59'.
Warning: this ship's position is 31 days out of date.

Length 157 m; draft 7.9 m.

Type: Cargo ship. MMSI: 636015065.

Date/timePositionNaut miles runAvg speedWind from/ knotsBaromVisibWave heightAir tempDewpointWater temp
2014-Jun-27 21:24N 34°18' W 007°59'1312.8
2014-Jun-27 20:24N 34°28' W 007°49'1112.8
2014-Jun-27 19:33N 34°36' W 007°40'13811.5
2014-Jun-27 07:31N 36°00' W 005°26'  
2014-Jun-24 20:33N 37°33' E 008°22'1211.9
2014-Jun-24 19:33N 37°35' E 008°37'1411.8
2014-Jun-24 18:22N 37°37' E 008°54'1011.3
2014-Jun-24 17:28N 37°38' E 009°07'1011.1
2014-Jun-24 16:33N 37°38' E 009°20'1111.0
2014-Jun-24 15:33N 37°39' E 009°34'1211.4
2014-Jun-24 14:32N 37°39' E 009°48'1312.9
2014-Jun-24 13:33N 37°39' E 010°04'1312.6
2014-Jun-24 12:34N 37°38' E 010°20'1312.5
2014-Jun-24 11:33N 37°35' E 010°35'1212.4
2014-Jun-24 10:33N 37°32' E 010°51'1212.1
2014-Jun-24 09:33N 37°29' E 011°05'1211.8
2014-Jun-24 08:33N 37°25' E 011°19'1211.9
2014-Jun-24 07:33N 37°21' E 011°34'2812.0
2014-Jun-24 05:13N 37°13' E 012°08'3211.9
2014-Jun-24 02:33N 37°02' E 012°44'1212.3
2014-Jun-24 01:34N 36°56' E 012°58'1312.8
2014-Jun-24 00:34N 36°52' E 013°13'1312.7
2014-Jun-23 23:34N 36°47' E 013°28'1312.6
2014-Jun-23 22:33N 36°42' E 013°43'1212.5
2014-Jun-23 21:33N 36°38' E 013°57'1212.5
2014-Jun-23 20:34N 36°33' E 014°11'1212.3
2014-Jun-23 19:33N 36°29' E 014°26'1212.1
2014-Jun-23 18:33N 36°25' E 014°40'1212.1
2014-Jun-23 17:33N 36°25' E 014°55'1311.9
2014-Jun-23 16:28N 36°25' E 015°11'42711.9
2014-Jun-22 04:30N 37°14' E 024°01'1413.9
2014-Jun-22 03:31N 37°24' E 024°13'1413.7
2014-Jun-22 02:31N 37°34' E 024°24'1313.2
2014-Jun-22 01:31N 37°45' E 024°32'1413.3
2014-Jun-22 00:30N 37°58' E 024°37'12712.8
2014-Jun-21 14:33N 39°52' E 025°49'5312.0
2014-Jun-21 10:08N 40°25' E 026°43'  
Track history (hours):
 
Tides and Currents Weather Stations Pressure Air Temp Water Temp Dewpoint Dewpoint Depression Visibility Wind Speed Wind Dir Waves Ship Positions

Leo Star I

Last reported at 2014-Jun-27 21:24 UTC. Time now 2014-Jul-29 02:36 UTC.
Position N 34°18' W 007°59'.
Warning: this ship's position is 31 days out of date.

Length 157 m; draft 7.9 m.

Type: Cargo ship. MMSI: 636015065.

Date/timePositionNaut miles runAvg speedWind from/ knotsBaromVisibWave heightAir tempDewpointWater temp
2014-Jun-27 21:24N 34°18' W 007°59'1312.8
2014-Jun-27 20:24N 34°28' W 007°49'1112.8
2014-Jun-27 19:33N 34°36' W 007°40'13811.5
2014-Jun-27 07:31N 36°00' W 005°26'  
2014-Jun-24 20:33N 37°33' E 008°22'1211.9
2014-Jun-24 19:33N 37°35' E 008°37'1411.8
2014-Jun-24 18:22N 37°37' E 008°54'1011.3
2014-Jun-24 17:28N 37°38' E 009°07'1011.1
2014-Jun-24 16:33N 37°38' E 009°20'1111.0
2014-Jun-24 15:33N 37°39' E 009°34'1211.4
2014-Jun-24 14:32N 37°39' E 009°48'1312.9
2014-Jun-24 13:33N 37°39' E 010°04'1312.6
2014-Jun-24 12:34N 37°38' E 010°20'1312.5
2014-Jun-24 11:33N 37°35' E 010°35'1212.4
2014-Jun-24 10:33N 37°32' E 010°51'1212.1
2014-Jun-24 09:33N 37°29' E 011°05'1211.8
2014-Jun-24 08:33N 37°25' E 011°19'1211.9
2014-Jun-24 07:33N 37°21' E 011°34'2812.0
2014-Jun-24 05:13N 37°13' E 012°08'3211.9
2014-Jun-24 02:33N 37°02' E 012°44'1212.3
2014-Jun-24 01:34N 36°56' E 012°58'1312.8
2014-Jun-24 00:34N 36°52' E 013°13'1312.7
2014-Jun-23 23:34N 36°47' E 013°28'1312.6
2014-Jun-23 22:33N 36°42' E 013°43'1212.5
2014-Jun-23 21:33N 36°38' E 013°57'1212.5
2014-Jun-23 20:34N 36°33' E 014°11'1212.3
2014-Jun-23 19:33N 36°29' E 014°26'1212.1
2014-Jun-23 18:33N 36°25' E 014°40'1212.1
2014-Jun-23 17:33N 36°25' E 014°55'1311.9
2014-Jun-23 16:28N 36°25' E 015°11'42711.9
2014-Jun-22 04:30N 37°14' E 024°01'1413.9
2014-Jun-22 03:31N 37°24' E 024°13'1413.7
2014-Jun-22 02:31N 37°34' E 024°24'1313.2
2014-Jun-22 01:31N 37°45' E 024°32'1413.3
2014-Jun-22 00:30N 37°58' E 024°37'12712.8
2014-Jun-21 14:33N 39°52' E 025°49'5312.0
2014-Jun-21 10:08N 40°25' E 026°43'  

Dump ship's entire track history